createdAt,value
2022-12-11T00:01:20.222Z,66.35
2022-12-11T00:03:50.614Z,66.32
2022-12-11T00:06:22.585Z,66.05
2022-12-11T00:08:54.488Z,65.95
2022-12-11T00:11:24.921Z,66.07
2022-12-11T00:13:55.352Z,66.35
2022-12-11T00:16:27.232Z,66.10
2022-12-11T00:18:57.703Z,66.34
2022-12-11T00:21:27.959Z,66.38
2022-12-11T00:23:58.353Z,65.94
2022-12-11T00:26:28.564Z,66.21
2022-12-11T00:28:59.226Z,66.04
2022-12-11T00:31:29.422Z,66.14
2022-12-11T00:34:01.829Z,66.22
2022-12-11T00:36:32.059Z,66.24
2022-12-11T00:39:03.143Z,66.03
2022-12-11T00:41:33.492Z,65.81
2022-12-11T00:44:05.007Z,65.86
2022-12-11T00:46:35.506Z,66.50
2022-12-11T00:49:05.662Z,66.29
2022-12-11T00:51:35.815Z,66.38
2022-12-11T00:54:06.789Z,66.16
2022-12-11T00:56:36.951Z,66.16
2022-12-11T00:59:07.432Z,66.40
2022-12-11T01:01:37.672Z,66.37
2022-12-11T01:04:08.004Z,66.11
2022-12-11T01:06:39.517Z,66.56
2022-12-11T01:09:28.083Z,66.26
2022-12-11T01:11:58.147Z,66.41
2022-12-11T01:18:10.132Z,65.99
2022-12-11T01:20:41.608Z,66.38
2022-12-11T01:23:13.455Z,66.48
2022-12-11T01:25:44.115Z,66.40
2022-12-11T01:28:14.552Z,66.42
2022-12-11T01:30:44.810Z,66.27
2022-12-11T01:33:15.051Z,66.53
2022-12-11T01:35:45.302Z,66.65
2022-12-11T01:38:15.472Z,66.68
2022-12-11T01:40:51.488Z,66.54
2022-12-11T01:43:21.642Z,66.38
2022-12-11T01:45:51.964Z,66.38
2022-12-11T01:48:25.758Z,66.79
2022-12-11T01:51:00.157Z,66.60
2022-12-11T01:53:32.729Z,66.73
2022-12-11T01:56:03.676Z,66.89
2022-12-11T01:58:41.139Z,67.01
2022-12-11T02:01:18.847Z,66.67
2022-12-11T02:03:49.398Z,66.75
2022-12-11T02:06:40.909Z,66.56
2022-12-11T02:09:17.722Z,66.84
2022-12-11T02:12:10.970Z,66.55
2022-12-11T02:14:56.907Z,66.67
2022-12-11T02:17:34.032Z,67.14
2022-12-11T02:20:15.888Z,66.93
2022-12-11T02:23:07.719Z,66.83
2022-12-11T02:25:56.733Z,66.90
2022-12-11T02:29:08.104Z,67.05
2022-12-11T02:31:54.619Z,66.58
2022-12-11T02:34:46.675Z,67.09
2022-12-11T02:37:21.155Z,67.11
2022-12-11T02:39:56.057Z,66.75
2022-12-11T02:42:30.956Z,67.28
2022-12-11T02:45:03.308Z,67.32
2022-12-11T02:47:33.952Z,67.08
2022-12-11T02:50:10.170Z,67.04
2022-12-11T02:52:43.375Z,66.94
2022-12-11T02:55:16.193Z,67.20
2022-12-11T02:57:51.798Z,67.50
2022-12-11T03:00:22.128Z,67.09
2022-12-11T03:02:52.437Z,66.86
2022-12-11T03:05:22.866Z,66.95
2022-12-11T03:07:53.278Z,66.98
2022-12-11T03:10:24.307Z,66.83
2022-12-11T03:12:57.435Z,67.18
2022-12-11T03:15:41.802Z,66.82
2022-12-11T03:18:16.250Z,66.87
2022-12-11T03:21:09.643Z,66.38
2022-12-11T03:24:11.169Z,66.38
2022-12-11T03:26:54.514Z,66.52
2022-12-11T03:29:39.746Z,66.77
2022-12-11T03:32:15.306Z,66.70
2022-12-11T03:34:58.519Z,66.34
2022-12-11T03:37:34.327Z,66.82
2022-12-11T03:40:11.152Z,66.89
2022-12-11T03:42:44.727Z,66.95
2022-12-11T03:45:18.135Z,67.12
2022-12-11T03:47:50.250Z,66.92
2022-12-11T03:50:22.795Z,67.40
2022-12-11T03:52:54.743Z,67.15
2022-12-11T03:55:25.783Z,67.45
2022-12-11T03:57:56.201Z,66.83
2022-12-11T04:00:26.629Z,66.91
2022-12-11T04:03:16.209Z,67.14
2022-12-11T04:05:51.782Z,67.41
2022-12-11T04:08:22.768Z,67.27
2022-12-11T04:11:11.435Z,66.70
2022-12-11T04:13:42.360Z,66.92
2022-12-11T04:16:12.605Z,66.83
2022-12-11T04:19:01.234Z,67.14
2022-12-11T04:21:49.962Z,66.85
2022-12-11T04:24:20.136Z,66.86
2022-12-11T04:26:50.450Z,67.42
2022-12-11T04:29:20.624Z,66.91
2022-12-11T04:31:51.003Z,66.79
2022-12-11T04:34:21.227Z,66.42
2022-12-11T04:36:51.577Z,66.94
2022-12-11T04:39:21.718Z,66.65
2022-12-11T04:41:51.940Z,66.42
2022-12-11T04:44:22.134Z,66.89
2022-12-11T04:46:52.382Z,66.58
2022-12-11T04:49:22.635Z,66.69
2022-12-11T04:51:52.830Z,66.26
2022-12-11T04:54:22.972Z,66.11
2022-12-11T04:56:53.096Z,66.14
2022-12-11T04:59:23.219Z,65.84
2022-12-11T05:01:53.495Z,65.85
2022-12-11T05:04:23.918Z,65.74
2022-12-11T05:06:54.112Z,66.32
2022-12-11T05:09:24.330Z,66.29
2022-12-11T05:11:54.790Z,66.51
2022-12-11T05:14:26.319Z,66.24
2022-12-11T05:16:56.542Z,66.14
2022-12-11T05:19:27.829Z,66.15
2022-12-11T05:21:57.950Z,66.22
2022-12-11T05:24:28.103Z,66.47
2022-12-11T05:26:58.221Z,65.84
2022-12-11T05:29:28.418Z,66.32
2022-12-11T05:31:59.045Z,66.29
2022-12-11T05:34:29.253Z,65.88
2022-12-11T05:36:59.479Z,65.77
2022-12-11T05:39:30.387Z,65.95
2022-12-11T05:42:00.529Z,66.39
2022-12-11T05:44:30.663Z,65.92
2022-12-11T05:47:00.947Z,65.67
2022-12-11T05:49:31.330Z,66.44
2022-12-11T05:52:01.583Z,65.63
2022-12-11T05:54:31.775Z,65.96
2022-12-11T05:57:01.976Z,66.12
2022-12-11T05:59:32.165Z,66.18
2022-12-11T06:02:02.550Z,65.64
2022-12-11T06:04:33.409Z,65.83
2022-12-11T06:07:03.619Z,66.07
2022-12-11T06:09:33.799Z,66.27
2022-12-11T06:12:04.433Z,66.19
2022-12-11T06:14:34.687Z,65.81
2022-12-11T06:17:04.885Z,66.50
2022-12-11T06:19:37.011Z,66.26
2022-12-11T06:22:07.500Z,66.29
2022-12-11T06:24:37.898Z,65.74
2022-12-11T06:27:08.398Z,66.16
2022-12-11T06:29:38.654Z,66.05
2022-12-11T06:32:08.876Z,65.61
2022-12-11T06:34:39.135Z,66.33
2022-12-11T06:37:09.472Z,66.39
2022-12-11T06:39:39.779Z,66.43
2022-12-11T06:42:09.910Z,66.32
2022-12-11T06:44:40.115Z,66.67
2022-12-11T06:47:10.234Z,66.62
2022-12-11T06:49:40.370Z,66.21
2022-12-11T06:52:14.999Z,66.35
2022-12-11T06:54:48.631Z,66.08
2022-12-11T06:57:19.531Z,66.50
2022-12-11T06:59:49.766Z,66.37
2022-12-11T07:02:20.715Z,66.32
2022-12-11T07:04:55.028Z,66.15
2022-12-11T07:07:25.738Z,66.31
2022-12-11T07:09:55.938Z,65.95
2022-12-11T07:12:26.113Z,66.25
2022-12-11T07:14:56.272Z,66.07
2022-12-11T07:17:26.505Z,66.12
2022-12-11T07:19:56.765Z,66.08
2022-12-11T07:22:26.986Z,65.87
2022-12-11T07:24:57.389Z,66.07
2022-12-11T07:27:28.486Z,65.71
2022-12-11T07:29:59.220Z,65.96
2022-12-11T07:32:29.951Z,66.10
2022-12-11T07:35:00.270Z,65.89
2022-12-11T07:37:30.482Z,65.93
2022-12-11T07:40:00.700Z,65.91
2022-12-11T07:42:30.861Z,65.78
2022-12-11T07:45:01.120Z,65.33
2022-12-11T07:47:31.369Z,65.83
2022-12-11T07:50:01.839Z,65.74
2022-12-11T07:52:33.860Z,65.75
2022-12-11T07:55:04.529Z,66.11
2022-12-11T07:57:34.719Z,65.79
2022-12-11T08:00:05.911Z,65.88
2022-12-11T08:02:37.620Z,66.10
2022-12-11T08:05:08.933Z,66.32
2022-12-11T08:07:39.339Z,66.06
2022-12-11T08:10:09.977Z,65.95
2022-12-11T08:12:40.110Z,66.07
2022-12-11T08:15:10.954Z,65.77
2022-12-11T08:17:41.378Z,65.61
2022-12-11T08:20:11.562Z,65.87
2022-12-11T08:22:41.718Z,66.09
2022-12-11T08:25:12.069Z,65.56
2022-12-11T08:27:42.670Z,65.70
2022-12-11T08:30:13.263Z,65.96
2022-12-11T08:32:43.454Z,65.66
2022-12-11T08:35:13.765Z,65.91
2022-12-11T08:37:43.989Z,65.70
2022-12-11T08:40:14.367Z,65.87
2022-12-11T08:42:44.535Z,65.69
2022-12-11T08:45:14.846Z,65.26
2022-12-11T08:47:45.091Z,65.63
2022-12-11T08:50:15.364Z,65.65
2022-12-11T08:52:45.954Z,65.75
2022-12-11T08:55:16.308Z,65.41
2022-12-11T08:57:46.456Z,65.59
2022-12-11T09:00:19.584Z,65.35
2022-12-11T09:02:49.842Z,65.84
2022-12-11T09:05:20.144Z,65.42
2022-12-11T09:07:50.419Z,65.48
2022-12-11T09:10:21.150Z,65.77
2022-12-11T09:12:51.470Z,65.44
2022-12-11T09:15:21.720Z,64.97
2022-12-11T09:17:52.696Z,65.17
2022-12-11T09:20:22.840Z,64.81
2022-12-11T09:22:53.012Z,65.41
2022-12-11T09:25:23.289Z,64.83
2022-12-11T09:27:53.497Z,65.13
2022-12-11T09:30:23.919Z,65.54
2022-12-11T09:32:54.047Z,64.98
2022-12-11T09:35:24.196Z,65.16
2022-12-11T09:37:54.325Z,65.25
2022-12-11T09:40:24.647Z,65.28
2022-12-11T09:43:09.909Z,64.84
2022-12-11T09:45:40.156Z,65.15
2022-12-11T09:48:11.487Z,65.66
2022-12-11T09:50:42.332Z,65.22
2022-12-11T09:53:19.060Z,65.30
2022-12-11T09:56:16.032Z,64.34
2022-12-11T09:59:05.376Z,64.96
2022-12-11T10:02:06.266Z,65.14
2022-12-11T10:04:52.019Z,64.67
2022-12-11T10:07:30.500Z,65.38
2022-12-11T10:10:26.665Z,65.52
2022-12-11T10:13:17.935Z,65.24
2022-12-11T10:15:58.076Z,65.29
2022-12-11T10:18:31.175Z,65.30
2022-12-11T10:21:02.700Z,65.44
2022-12-11T10:23:45.074Z,65.11
2022-12-11T10:26:19.550Z,65.49
2022-12-11T10:28:50.271Z,65.76
2022-12-11T10:31:35.340Z,64.96
2022-12-11T10:34:13.866Z,65.35
2022-12-11T10:36:44.103Z,65.44
2022-12-11T10:39:20.469Z,65.06
2022-12-11T10:41:53.723Z,65.40
2022-12-11T10:44:29.800Z,65.06
2022-12-11T10:47:15.718Z,65.06
2022-12-11T10:50:01.332Z,64.98
2022-12-11T10:52:38.339Z,65.84
2022-12-11T10:55:22.614Z,65.23
2022-12-11T10:58:06.017Z,65.53
2022-12-11T11:00:37.868Z,65.54
2022-12-11T11:03:28.657Z,65.02
2022-12-11T11:06:05.741Z,65.58
2022-12-11T11:08:44.705Z,65.79
2022-12-11T11:11:24.637Z,65.41
2022-12-11T11:14:10.064Z,65.41
2022-12-11T11:16:43.061Z,65.69
2022-12-11T11:19:26.626Z,65.76
2022-12-11T11:22:01.224Z,65.84
2022-12-11T11:24:31.422Z,65.56
2022-12-11T11:27:13.189Z,65.86
2022-12-11T11:29:47.741Z,65.79
2022-12-11T11:32:41.828Z,65.63
2022-12-11T11:35:12.244Z,66.20
2022-12-11T11:37:47.446Z,66.09
2022-12-11T11:40:30.930Z,65.54
2022-12-11T11:43:08.209Z,66.29
2022-12-11T11:45:44.781Z,65.54
2022-12-11T11:48:40.566Z,65.74
2022-12-11T11:51:22.861Z,66.17
2022-12-11T11:53:55.754Z,66.04
2022-12-11T11:56:37.721Z,65.85
2022-12-11T11:59:18.027Z,66.09
2022-12-11T12:01:48.343Z,66.10
2022-12-11T12:04:18.718Z,65.67
2022-12-11T12:07:01.144Z,66.32
2022-12-11T12:10:01.651Z,66.15
2022-12-11T12:13:23.927Z,65.94
2022-12-11T12:16:00.464Z,66.26
2022-12-11T12:18:33.857Z,66.84
2022-12-11T12:21:35.050Z,66.33
2022-12-11T12:24:35.243Z,66.95
2022-12-11T12:27:51.072Z,66.36
2022-12-11T12:30:22.858Z,66.73
2022-12-11T12:33:21.455Z,66.75
2022-12-11T12:36:14.279Z,67.35
2022-12-11T12:38:54.012Z,66.94
2022-12-11T12:41:39.379Z,67.28
2022-12-11T12:44:20.665Z,67.19
2022-12-11T12:46:56.631Z,67.58
2022-12-11T12:49:49.236Z,67.43
2022-12-11T12:52:40.986Z,67.67
2022-12-11T12:55:23.037Z,67.41
2022-12-11T12:57:57.997Z,67.43
2022-12-11T13:00:31.308Z,67.79
2022-12-11T13:03:13.576Z,67.89
2022-12-11T13:05:55.380Z,67.66
2022-12-11T13:08:41.128Z,68.07
2022-12-11T13:11:15.162Z,68.28
2022-12-11T13:14:15.478Z,68.36
2022-12-11T13:16:47.665Z,67.64
2022-12-11T13:19:24.012Z,68.14
2022-12-11T13:22:06.888Z,68.34
2022-12-11T13:24:48.045Z,67.90
2022-12-11T13:27:40.049Z,68.19
2022-12-11T13:30:16.093Z,67.74
2022-12-11T13:33:00.826Z,68.21
2022-12-11T13:35:33.279Z,68.08
2022-12-11T13:38:29.651Z,68.16
2022-12-11T13:41:00.281Z,68.39
2022-12-11T13:43:33.477Z,68.13
2022-12-11T13:46:08.162Z,68.10
2022-12-11T13:48:44.173Z,68.10
2022-12-11T13:51:23.717Z,68.45
2022-12-11T13:54:16.513Z,68.48
2022-12-11T13:56:55.382Z,68.67
2022-12-11T13:59:29.283Z,67.95
2022-12-11T14:02:05.766Z,68.63
2022-12-11T14:04:37.678Z,68.57
2022-12-11T14:07:11.942Z,68.08
2022-12-11T14:09:47.523Z,68.46
2022-12-11T14:12:21.586Z,68.46
2022-12-11T14:14:57.082Z,68.41
2022-12-11T14:17:30.644Z,68.50
2022-12-11T14:20:03.676Z,68.32
2022-12-11T14:22:34.141Z,67.77
2022-12-11T14:25:25.599Z,68.46
2022-12-11T14:27:57.750Z,68.55
2022-12-11T14:30:32.063Z,67.92
2022-12-11T14:33:05.683Z,67.95
2022-12-11T14:35:40.763Z,68.01
2022-12-11T14:38:27.304Z,67.92
2022-12-11T14:41:03.485Z,67.78
2022-12-11T14:43:45.680Z,68.16
2022-12-11T14:46:24.001Z,67.84
2022-12-11T14:49:03.728Z,68.11
2022-12-11T14:51:39.219Z,67.77
2022-12-11T14:54:21.430Z,67.48
2022-12-11T14:56:51.656Z,67.52
2022-12-11T14:59:30.123Z,67.99
2022-12-11T15:02:21.688Z,67.63
2022-12-11T15:05:18.445Z,67.97
2022-12-11T15:07:59.363Z,67.70
2022-12-11T15:10:37.560Z,67.95
2022-12-11T15:13:09.064Z,68.05
2022-12-11T15:15:46.916Z,67.56
2022-12-11T15:18:41.753Z,67.65
2022-12-11T15:21:12.931Z,67.98
2022-12-11T15:23:46.093Z,68.23
2022-12-11T15:26:17.405Z,68.13
2022-12-11T15:28:47.901Z,68.06
2022-12-11T15:31:27.444Z,68.21
2022-12-11T15:34:03.394Z,68.15
2022-12-11T15:36:36.775Z,68.02
2022-12-11T15:39:09.075Z,68.05
2022-12-11T15:41:42.394Z,68.63
2022-12-11T15:44:21.782Z,68.39
2022-12-11T15:46:52.031Z,68.38
2022-12-11T15:49:24.456Z,68.16
2022-12-11T15:51:54.975Z,68.44
2022-12-11T15:54:25.913Z,68.92
2022-12-11T15:56:56.382Z,68.79
2022-12-11T15:59:26.756Z,68.90
2022-12-11T16:01:56.970Z,68.65
2022-12-11T16:04:27.399Z,68.63
2022-12-11T16:06:57.666Z,68.86
2022-12-11T16:09:27.964Z,68.99
2022-12-11T16:11:58.240Z,68.75
2022-12-11T16:14:28.448Z,69.07
2022-12-11T16:16:59.044Z,69.36
2022-12-11T16:19:30.630Z,68.95
2022-12-11T16:22:01.059Z,68.78
2022-12-11T16:24:32.302Z,69.17
2022-12-11T16:27:02.996Z,69.23
2022-12-11T16:29:38.319Z,69.18
2022-12-11T16:32:09.143Z,69.53
2022-12-11T16:34:39.566Z,69.82
2022-12-11T16:37:10.076Z,69.57
2022-12-11T16:39:42.643Z,69.63
2022-12-11T16:42:12.839Z,69.64
2022-12-11T16:44:44.290Z,69.59
2022-12-11T16:47:14.788Z,69.44
2022-12-11T16:49:45.222Z,69.91
2022-12-11T16:52:20.528Z,69.89
2022-12-11T16:54:52.785Z,69.78
2022-12-11T16:57:23.141Z,69.99
2022-12-11T16:59:53.292Z,69.90
2022-12-11T17:02:23.902Z,70.19
2022-12-11T17:04:54.336Z,69.97
2022-12-11T17:07:24.596Z,69.80
2022-12-11T17:09:54.759Z,70.33
2022-12-11T17:12:28.020Z,70.10
2022-12-11T17:14:58.418Z,70.04
2022-12-11T17:17:28.724Z,70.00
2022-12-11T17:19:59.039Z,70.32
2022-12-11T17:22:29.607Z,70.08
2022-12-11T17:24:59.834Z,69.55
2022-12-11T17:27:30.336Z,69.93
2022-12-11T17:30:00.577Z,70.16
2022-12-11T17:32:30.975Z,70.33
2022-12-11T17:35:02.567Z,69.99
2022-12-11T17:37:32.845Z,69.79
2022-12-11T17:40:03.618Z,69.61
2022-12-11T17:42:34.086Z,70.33
2022-12-11T17:45:05.645Z,70.19
2022-12-11T17:47:35.945Z,69.99
2022-12-11T17:50:07.053Z,70.49
2022-12-11T17:52:43.819Z,70.27
2022-12-11T17:55:14.740Z,70.46
2022-12-11T17:57:45.386Z,70.33
2022-12-11T18:00:15.843Z,70.37
2022-12-11T18:02:46.053Z,70.33
2022-12-11T18:05:16.614Z,70.67
2022-12-11T18:07:46.808Z,70.15
2022-12-11T18:10:17.132Z,69.84
2022-12-11T18:12:47.438Z,69.79
2022-12-11T18:15:19.743Z,70.64
2022-12-11T18:17:49.957Z,70.38
2022-12-11T18:20:20.247Z,70.23
2022-12-11T18:22:51.248Z,70.30
2022-12-11T18:25:23.124Z,70.03
2022-12-11T18:27:55.413Z,69.87
2022-12-11T18:30:26.119Z,70.35
2022-12-11T18:32:56.326Z,70.06
2022-12-11T18:35:26.706Z,69.66
2022-12-11T18:37:57.477Z,69.81
2022-12-11T18:40:28.952Z,70.32
2022-12-11T18:42:59.175Z,70.21
2022-12-11T18:45:29.415Z,69.70
2022-12-11T18:47:59.632Z,70.13
2022-12-11T18:50:29.906Z,69.89
2022-12-11T18:53:00.574Z,70.38
2022-12-11T18:55:30.803Z,70.42
2022-12-11T18:58:00.915Z,70.54
2022-12-11T19:00:31.267Z,70.37
2022-12-11T19:03:02.225Z,70.00
2022-12-11T19:05:32.630Z,70.19
2022-12-11T19:08:03.791Z,70.45
2022-12-11T19:10:34.377Z,70.70
2022-12-11T19:13:04.562Z,70.45
2022-12-11T19:15:39.183Z,70.52
2022-12-11T19:18:10.235Z,70.33
2022-12-11T19:20:55.620Z,70.71
2022-12-11T19:23:33.159Z,70.46
2022-12-11T19:26:03.865Z,70.48
2022-12-11T19:28:34.980Z,70.42
2022-12-11T19:31:09.429Z,70.19
2022-12-11T19:33:40.891Z,70.59
2022-12-11T19:36:13.940Z,70.45
2022-12-11T19:38:45.466Z,70.64
2022-12-11T19:41:27.354Z,70.77
2022-12-11T19:43:59.687Z,70.71
2022-12-11T19:46:30.299Z,70.62
2022-12-11T19:49:01.457Z,70.67
2022-12-11T19:51:38.851Z,70.89
2022-12-11T19:54:12.881Z,71.15
2022-12-11T19:56:43.972Z,70.33
2022-12-11T19:59:16.985Z,70.63
2022-12-11T20:01:48.304Z,70.48
2022-12-11T20:04:18.763Z,70.58
2022-12-11T20:06:49.305Z,70.84
2022-12-11T20:09:19.738Z,70.29
2022-12-11T20:11:50.423Z,70.56
2022-12-11T20:14:24.135Z,70.47
2022-12-11T20:17:13.872Z,70.06
2022-12-11T20:19:45.000Z,70.45
2022-12-11T20:22:15.198Z,70.49
2022-12-11T20:24:46.186Z,70.39
2022-12-11T20:27:16.678Z,70.69
2022-12-11T20:29:46.936Z,70.64
2022-12-11T20:32:17.152Z,70.67
2022-12-11T20:34:47.423Z,70.83
2022-12-11T20:37:17.679Z,70.40
2022-12-11T20:39:48.508Z,70.69
2022-12-11T20:42:19.532Z,70.37
2022-12-11T20:44:55.904Z,70.76
2022-12-11T20:47:36.016Z,70.37
2022-12-11T20:50:06.585Z,70.64
2022-12-11T20:52:38.999Z,70.30
2022-12-11T20:55:10.087Z,70.49
2022-12-11T20:57:45.078Z,70.69
2022-12-11T21:00:16.896Z,70.66
2022-12-11T21:02:50.268Z,70.87
2022-12-11T21:05:20.613Z,70.92
2022-12-11T21:07:54.270Z,70.36
2022-12-11T21:10:27.391Z,70.54
2022-12-11T21:12:57.668Z,70.95
2022-12-11T21:15:28.345Z,70.62
2022-12-11T21:17:58.561Z,70.95
2022-12-11T21:20:28.791Z,71.06
2022-12-11T21:22:59.100Z,70.90
2022-12-11T21:25:29.468Z,70.91
2022-12-11T21:27:59.656Z,70.88
2022-12-11T21:30:29.887Z,71.23
2022-12-11T21:33:01.131Z,70.55
2022-12-11T21:35:31.418Z,70.93
2022-12-11T21:38:02.272Z,70.79
2022-12-11T21:40:32.563Z,70.81
2022-12-11T21:43:02.697Z,70.91
2022-12-11T21:48:26.651Z,71.15
2022-12-11T21:51:08.339Z,70.48
2022-12-11T21:53:38.698Z,70.81
2022-12-11T21:56:14.863Z,70.64
2022-12-11T21:58:45.816Z,70.94
2022-12-11T22:01:31.548Z,71.21
2022-12-11T22:04:02.264Z,71.11
2022-12-11T22:06:32.633Z,71.31
2022-12-11T22:09:03.939Z,70.34
2022-12-11T22:11:35.561Z,70.73
2022-12-11T22:14:07.059Z,70.84
2022-12-11T22:16:37.292Z,70.51
2022-12-11T22:19:07.614Z,70.28
2022-12-11T22:21:38.284Z,70.17
2022-12-11T22:24:08.857Z,69.97
2022-12-11T22:26:39.458Z,70.22
2022-12-11T22:29:09.771Z,69.99
2022-12-11T22:31:39.890Z,70.12
2022-12-11T22:34:10.144Z,70.26
2022-12-11T22:36:40.311Z,69.91
2022-12-11T22:39:10.493Z,70.09
2022-12-11T22:41:42.165Z,69.86
2022-12-11T22:44:21.230Z,69.68
2022-12-11T22:46:51.729Z,69.46
2022-12-11T22:49:22.013Z,69.73
2022-12-11T22:51:52.182Z,69.82
2022-12-11T22:54:22.415Z,69.90
2022-12-11T22:56:52.629Z,70.25
2022-12-11T22:59:23.335Z,70.00
2022-12-11T23:01:53.763Z,70.10
2022-12-11T23:04:23.899Z,69.87
2022-12-11T23:06:54.450Z,70.22
2022-12-11T23:09:24.751Z,70.54
2022-12-11T23:11:56.068Z,69.97
2022-12-11T23:14:26.569Z,70.37
2022-12-11T23:16:57.471Z,70.59
2022-12-11T23:19:28.049Z,70.25
2022-12-11T23:21:58.422Z,70.70
2022-12-11T23:24:29.198Z,70.38
2022-12-11T23:27:00.550Z,70.79
2022-12-11T23:29:31.060Z,70.80
2022-12-11T23:32:01.470Z,70.93
2022-12-11T23:34:31.676Z,71.45
2022-12-11T23:37:02.398Z,71.14
2022-12-11T23:39:32.817Z,71.29
2022-12-11T23:42:03.183Z,70.83
2022-12-11T23:44:33.666Z,71.12
2022-12-11T23:47:03.931Z,71.21
2022-12-11T23:49:34.250Z,71.30
2022-12-11T23:52:04.687Z,71.23
2022-12-11T23:54:35.351Z,71.70
2022-12-11T23:57:05.575Z,71.65
2022-12-11T23:59:37.076Z,71.50
